createdAt,value
2019-03-08T00:02:51.921Z,99027.18
2019-03-08T00:07:54.219Z,99028.30
2019-03-08T00:12:56.323Z,99033.36
2019-03-08T00:17:58.433Z,99036.11
2019-03-08T00:23:00.872Z,99017.02
2019-03-08T00:28:02.957Z,99019.63
2019-03-08T00:33:05.028Z,99022.12
2019-03-08T00:38:07.129Z,99016.39
2019-03-08T00:43:09.171Z,99010.03
2019-03-08T00:48:11.262Z,99009.38
2019-03-08T00:53:13.302Z,98998.92
2019-03-08T00:58:15.350Z,99004.30
2019-03-08T01:03:17.403Z,99006.91
2019-03-08T01:08:19.473Z,99010.69
2019-03-08T01:13:21.539Z,99015.73
2019-03-08T01:18:23.652Z,99010.69
2019-03-08T01:23:25.718Z,99010.01
2019-03-08T01:28:28.105Z,99011.49
2019-03-08T01:33:30.198Z,99011.17
2019-03-08T01:38:32.322Z,98999.08
2019-03-08T01:43:34.457Z,98998.24
2019-03-08T01:48:36.592Z,99001.52
2019-03-08T01:53:38.905Z,98987.94
2019-03-08T01:58:41.378Z,98983.54
2019-03-08T02:03:43.417Z,98974.54
2019-03-08T02:08:45.498Z,98974.21
2019-03-08T02:13:47.560Z,98981.04
2019-03-08T02:18:51.912Z,98980.57
2019-03-08T02:23:54.004Z,98984.81
2019-03-08T02:28:56.176Z,98977.27
2019-03-08T02:34:00.462Z,98972.22
2019-03-08T02:39:04.551Z,98983.47
2019-03-08T02:44:06.662Z,98981.33
2019-03-08T02:49:08.726Z,98965.97
2019-03-08T02:54:10.860Z,98962.23
2019-03-08T02:59:15.243Z,98957.16
2019-03-08T03:04:17.353Z,98958.78
2019-03-08T03:09:19.534Z,98968.26
2019-03-08T03:14:21.590Z,98964.84
2019-03-08T03:19:23.689Z,98967.75
2019-03-08T03:24:25.901Z,98978.56
2019-03-08T03:29:28.064Z,98971.38
2019-03-08T03:34:32.548Z,98973.02
2019-03-08T03:39:34.600Z,98968.91
2019-03-08T03:44:36.546Z,98975.45
2019-03-08T03:49:38.658Z,98964.20
2019-03-08T03:54:40.776Z,98972.36
2019-03-08T03:59:42.819Z,98976.43
2019-03-08T04:04:44.997Z,98985.75
2019-03-08T04:09:47.090Z,98978.56
2019-03-08T04:14:49.182Z,98984.58
2019-03-08T04:19:53.126Z,98983.27
2019-03-08T04:24:55.735Z,98982.30
2019-03-08T04:29:57.832Z,99000.26
2019-03-08T04:34:59.980Z,98987.70
2019-03-08T04:40:02.087Z,99005.80
2019-03-08T04:45:04.868Z,99001.19
2019-03-08T04:50:08.093Z,99000.71
2019-03-08T04:55:11.525Z,99007.25
2019-03-08T05:00:15.317Z,99020.78
2019-03-08T05:05:17.427Z,99012.63
2019-03-08T05:10:19.715Z,99028.80
2019-03-08T05:15:21.757Z,99022.79
2019-03-08T05:20:23.770Z,99043.75
2019-03-08T05:25:25.885Z,99030.70
2019-03-08T05:30:28.189Z,99038.39
2019-03-08T05:35:30.260Z,99046.05
2019-03-08T05:40:32.343Z,99053.74
2019-03-08T05:45:34.398Z,99068.07
2019-03-08T05:50:36.480Z,99074.98
2019-03-08T05:55:38.512Z,99075.83
2019-03-08T06:00:40.560Z,99079.11
2019-03-08T06:05:44.431Z,99079.76
2019-03-08T06:10:46.525Z,99099.56
2019-03-08T06:15:48.670Z,99089.14
2019-03-08T06:20:50.725Z,99090.59
2019-03-08T06:25:52.826Z,99094.19
2019-03-08T06:30:54.905Z,99098.66
2019-03-08T06:35:56.984Z,99106.18
2019-03-08T06:40:59.046Z,99108.14
2019-03-08T06:46:01.166Z,99133.97
2019-03-08T06:51:03.241Z,99137.14
2019-03-08T06:56:05.514Z,99138.92
2019-03-08T07:01:10.525Z,99143.55
2019-03-08T07:06:12.662Z,99159.59
2019-03-08T07:11:14.714Z,99171.41
2019-03-08T07:16:16.752Z,99177.14
2019-03-08T07:21:26.657Z,99191.91
2019-03-08T07:26:39.325Z,99192.59
2019-03-08T07:32:12.948Z,99211.52
2019-03-08T07:37:33.894Z,99227.11
2019-03-08T07:42:54.111Z,99244.95
2019-03-08T07:48:14.319Z,99258.62
2019-03-08T07:53:23.680Z,99273.05
2019-03-08T07:59:00.495Z,99280.77
2019-03-08T08:04:37.287Z,99284.56
2019-03-08T08:10:01.861Z,99310.30
2019-03-08T08:15:27.307Z,99330.60
2019-03-08T08:20:51.962Z,99338.32
2019-03-08T08:26:31.885Z,99349.47
2019-03-08T08:32:11.442Z,99365.84
2019-03-08T08:37:22.128Z,99395.17
2019-03-08T08:42:33.941Z,99414.98
2019-03-08T08:48:01.888Z,99424.31
2019-03-08T08:53:11.490Z,99448.27
2019-03-08T08:58:38.911Z,99458.25
2019-03-08T09:04:12.526Z,99481.70
2019-03-08T09:09:37.091Z,99489.20
2019-03-08T09:15:09.036Z,99508.77
2019-03-08T09:20:30.779Z,99529.23
2019-03-08T09:25:55.357Z,99547.06
2019-03-08T09:31:32.103Z,99553.73
2019-03-08T09:37:02.833Z,99555.05
2019-03-08T09:42:27.586Z,99574.45
2019-03-08T09:47:42.208Z,99571.94
2019-03-08T09:53:03.907Z,99582.42
2019-03-08T09:58:31.547Z,99582.37
2019-03-08T10:03:58.665Z,99584.41
2019-03-08T10:09:29.138Z,99591.09
2019-03-08T10:14:57.109Z,99592.36
2019-03-08T10:20:09.255Z,99598.64
2019-03-08T10:25:31.150Z,99611.29
2019-03-08T10:30:43.446Z,99616.56
2019-03-08T10:36:25.150Z,99624.59
2019-03-08T10:41:35.348Z,99628.70
2019-03-08T10:47:06.024Z,99635.77
2019-03-08T10:52:21.756Z,99637.93
2019-03-08T10:57:40.934Z,99646.42
2019-03-08T11:03:02.605Z,99647.13
2019-03-08T11:08:29.691Z,99653.58
2019-03-08T11:13:48.163Z,99656.81
2019-03-08T11:19:09.167Z,99662.71
2019-03-08T11:24:33.813Z,99671.35
2019-03-08T11:29:57.859Z,99670.12
2019-03-08T11:35:28.631Z,99679.08
2019-03-08T11:40:57.109Z,99700.83
2019-03-08T11:46:08.457Z,99709.54
2019-03-08T11:51:38.803Z,99709.45
2019-03-08T11:56:59.015Z,99717.06
2019-03-08T12:02:38.863Z,99718.42
2019-03-08T12:08:01.998Z,99723.36
2019-03-08T12:13:21.173Z,99726.50
2019-03-08T12:18:45.467Z,99750.17
2019-03-08T12:24:07.172Z,99766.53
2019-03-08T12:29:14.820Z,99771.05
2019-03-08T12:34:42.350Z,99774.20
2019-03-08T12:39:52.677Z,99767.19
2019-03-08T12:45:14.460Z,99775.11
2019-03-08T12:50:22.375Z,99783.47
2019-03-08T12:55:35.404Z,99793.87
2019-03-08T13:00:50.337Z,99791.74
2019-03-08T13:06:00.943Z,99801.13
2019-03-08T13:11:02.998Z,99813.44
2019-03-08T13:16:05.074Z,99826.07
2019-03-08T13:21:07.175Z,99829.98
2019-03-08T13:26:09.207Z,99839.65
2019-03-08T13:31:11.336Z,99851.62
2019-03-08T13:36:13.397Z,99860.55
2019-03-08T13:41:15.498Z,99864.55
2019-03-08T13:46:17.636Z,99848.75
2019-03-08T13:51:19.665Z,99868.50
2019-03-08T13:56:21.725Z,99868.78
2019-03-08T14:01:23.988Z,99884.08
2019-03-08T14:06:26.087Z,99888.20
2019-03-08T14:11:28.148Z,99906.38
2019-03-08T14:16:30.232Z,99915.72
2019-03-08T14:21:32.320Z,99924.83
2019-03-08T14:26:34.384Z,99926.52
2019-03-08T14:31:45.447Z,99937.47
2019-03-08T14:36:46.384Z,99936.23
2019-03-08T14:42:23.103Z,99957.29
2019-03-08T14:47:33.475Z,99957.83
2019-03-08T14:52:35.040Z,99951.39
2019-03-08T14:57:37.122Z,99956.56
2019-03-08T15:02:39.492Z,99968.98
2019-03-08T15:07:42.133Z,99966.86
2019-03-08T15:12:49.007Z,99972.01
2019-03-08T15:17:49.741Z,99977.48
2019-03-08T15:22:52.358Z,99986.08
2019-03-08T15:27:54.436Z,99987.33
2019-03-08T15:32:56.592Z,99989.67
2019-03-08T15:37:58.716Z,99988.30
2019-03-08T15:43:00.777Z,99995.64
2019-03-08T15:48:03.303Z,100008.28
2019-03-08T15:53:05.404Z,100007.34
2019-03-08T15:58:09.909Z,100019.20
2019-03-08T16:03:12.031Z,100025.02
2019-03-08T16:08:14.094Z,100034.42
2019-03-08T16:13:16.136Z,100028.20
2019-03-08T16:18:20.331Z,100037.63
2019-03-08T16:23:22.423Z,100037.43
2019-03-08T16:28:24.499Z,100036.03
2019-03-08T16:33:35.646Z,100043.48
2019-03-08T16:38:57.342Z,100057.05
2019-03-08T16:44:15.904Z,100067.28
2019-03-08T16:49:24.595Z,100064.06
2019-03-08T16:54:44.819Z,100076.66
2019-03-08T17:00:09.117Z,100084.00
2019-03-08T17:05:29.562Z,100100.27
2019-03-08T17:10:51.252Z,100102.02
2019-03-08T17:16:11.653Z,100114.92
2019-03-08T17:21:48.247Z,100128.59
2019-03-08T17:26:56.894Z,100119.68
2019-03-08T17:32:17.297Z,100138.14
2019-03-08T17:37:33.077Z,100148.66
2019-03-08T17:42:53.478Z,100166.08
2019-03-08T17:48:07.833Z,100176.27
2019-03-08T17:53:28.190Z,100179.84
2019-03-08T17:58:48.304Z,100187.14
2019-03-08T18:03:56.287Z,100193.50
2019-03-08T18:09:10.160Z,100196.47
2019-03-08T18:14:32.255Z,100186.80
2019-03-08T18:20:02.981Z,100190.39
2019-03-08T18:25:14.104Z,100192.25
2019-03-08T18:30:38.594Z,100199.09
2019-03-08T18:35:55.338Z,100198.80
2019-03-08T18:41:09.067Z,100201.98
2019-03-08T18:46:30.759Z,100202.67
2019-03-08T18:52:01.260Z,100211.50
2019-03-08T18:57:17.095Z,100214.64
2019-03-08T19:02:30.163Z,100221.69
2019-03-08T19:08:10.141Z,100231.42
2019-03-08T19:13:32.731Z,100234.29
2019-03-08T19:19:09.483Z,100232.97
2019-03-08T19:24:22.611Z,100237.80
2019-03-08T19:29:49.991Z,100241.03
2019-03-08T19:35:05.270Z,100240.47
2019-03-08T19:40:36.630Z,100245.63
2019-03-08T19:45:58.684Z,100239.31
2019-03-08T19:51:35.420Z,100232.79
2019-03-08T19:56:55.787Z,100233.73
2019-03-08T20:02:15.785Z,100239.44
2019-03-08T20:07:43.052Z,100236.30
2019-03-08T20:13:00.502Z,100250.45
2019-03-08T20:18:37.222Z,100238.05
2019-03-08T20:23:46.051Z,100235.03
2019-03-08T20:29:02.948Z,100243.66
2019-03-08T20:34:15.433Z,100249.92
2019-03-08T20:39:27.586Z,100245.92
2019-03-08T20:44:37.095Z,100249.61
2019-03-08T20:49:39.277Z,100257.87
2019-03-08T20:54:41.433Z,100259.20
2019-03-08T20:59:43.510Z,100257.44
2019-03-08T21:04:45.580Z,100260.60
2019-03-08T21:09:47.779Z,100257.44
2019-03-08T21:14:49.871Z,100261.27
2019-03-08T21:19:52.455Z,100259.12
2019-03-08T21:24:54.523Z,100249.36
2019-03-08T21:29:56.689Z,100250.93
2019-03-08T21:34:58.766Z,100249.19
2019-03-08T21:40:00.928Z,100232.11
2019-03-08T21:45:03.375Z,100232.16
2019-03-08T21:50:06.806Z,100228.80
2019-03-08T21:55:09.261Z,100222.98
2019-03-08T22:00:13.982Z,100211.02
2019-03-08T22:05:20.229Z,100208.16
2019-03-08T22:10:41.902Z,100205.28
2019-03-08T22:15:43.985Z,100193.68
2019-03-08T22:20:46.111Z,100181.09
2019-03-08T22:25:48.173Z,100177.66
2019-03-08T22:30:50.282Z,100175.52
2019-03-08T22:35:52.751Z,100176.05
2019-03-08T22:40:57.032Z,100173.27
2019-03-08T22:45:59.290Z,100165.20
2019-03-08T22:51:01.375Z,100153.01
2019-03-08T22:56:03.501Z,100148.95
2019-03-08T23:01:11.641Z,100136.58
2019-03-08T23:06:13.669Z,100136.44
2019-03-08T23:11:15.829Z,100136.20
2019-03-08T23:16:17.891Z,100126.27
2019-03-08T23:21:20.032Z,100124.54
2019-03-08T23:26:22.117Z,100125.03
2019-03-08T23:31:40.864Z,100117.39
2019-03-08T23:36:42.989Z,100117.92
2019-03-08T23:41:45.030Z,100104.40
2019-03-08T23:46:47.085Z,100091.19
2019-03-08T23:51:49.433Z,100090.91
2019-03-08T23:56:51.560Z,100077.95
